createdAt,value
2023-05-01T00:01:49.600Z,80.77
2023-05-01T00:05:27.796Z,81.06
2023-05-01T00:09:04.984Z,82.30
2023-05-01T00:12:42.512Z,82.23
2023-05-01T00:16:20.157Z,83.07
2023-05-01T00:19:58.563Z,83.82
2023-05-01T00:23:35.503Z,83.47
2023-05-01T00:27:13.457Z,83.48
2023-05-01T00:30:50.796Z,83.59
2023-05-01T00:34:29.118Z,83.74
2023-05-01T00:38:05.957Z,84.62
2023-05-01T00:41:43.915Z,84.86
2023-05-01T00:45:21.396Z,84.71
2023-05-01T00:48:59.307Z,85.17
2023-05-01T00:52:37.426Z,84.86
2023-05-01T00:56:16.153Z,84.26
2023-05-01T00:59:52.191Z,84.42
2023-05-01T01:03:31.615Z,84.19
2023-05-01T01:07:24.734Z,84.81
2023-05-01T01:11:04.008Z,85.08
2023-05-01T01:14:33.207Z,85.33
2023-05-01T01:18:18.172Z,85.63
2023-05-01T01:21:45.346Z,85.37
2023-05-01T01:25:34.802Z,85.22
2023-05-01T01:29:12.396Z,84.80
2023-05-01T01:33:09.735Z,84.67
2023-05-01T01:36:47.967Z,84.25
2023-05-01T01:40:08.170Z,84.50
2023-05-01T01:43:47.979Z,83.93
2023-05-01T01:47:24.213Z,83.96
2023-05-01T01:50:59.019Z,83.37
2023-05-01T01:54:37.897Z,83.65
2023-05-01T01:58:13.659Z,83.89
2023-05-01T02:01:50.920Z,83.36
2023-05-01T02:05:27.441Z,84.02
2023-05-01T02:09:07.737Z,83.76
2023-05-01T02:12:48.763Z,83.96
2023-05-01T02:16:23.278Z,83.99
2023-05-01T02:19:58.098Z,83.84
2023-05-01T02:23:36.464Z,83.46
2023-05-01T02:27:24.721Z,83.77
2023-05-01T02:30:50.843Z,82.86
2023-05-01T02:34:28.264Z,83.09
2023-05-01T02:38:06.397Z,84.01
2023-05-01T02:41:44.959Z,82.84
2023-05-01T02:45:23.869Z,82.91
2023-05-01T02:49:01.880Z,82.91
2023-05-01T02:52:37.743Z,83.09
2023-05-01T02:56:14.722Z,83.98
2023-05-01T02:59:51.615Z,83.88
2023-05-01T03:03:29.783Z,83.39
2023-05-01T03:07:06.986Z,83.89
2023-05-01T03:10:44.728Z,83.41
2023-05-01T03:14:22.521Z,83.24
2023-05-01T03:18:00.332Z,84.06
2023-05-01T03:21:38.612Z,83.84
2023-05-01T03:25:15.746Z,83.96
2023-05-01T03:28:53.123Z,84.53
2023-05-01T03:32:31.106Z,84.32
2023-05-01T03:36:12.382Z,84.63
2023-05-01T03:39:46.776Z,84.63
2023-05-01T03:43:24.953Z,84.52
2023-05-01T03:47:01.913Z,84.35
2023-05-01T03:50:39.135Z,83.92
2023-05-01T03:54:16.842Z,84.38
2023-05-01T03:57:54.556Z,84.43
2023-05-01T04:01:35.006Z,84.22
2023-05-01T04:05:10.360Z,84.14
2023-05-01T04:08:47.460Z,84.09
2023-05-01T04:12:25.028Z,84.13
2023-05-01T04:16:03.232Z,84.53
2023-05-01T04:19:41.356Z,84.97
2023-05-01T04:23:18.435Z,84.29
2023-05-01T04:26:56.020Z,83.82
2023-05-01T04:30:33.677Z,84.56
2023-05-01T04:34:11.507Z,85.02
2023-05-01T04:37:48.884Z,84.93
2023-05-01T04:41:26.947Z,84.56
2023-05-01T04:45:04.846Z,85.05
2023-05-01T04:48:42.258Z,84.49
2023-05-01T04:52:19.909Z,83.36
2023-05-01T04:55:57.543Z,82.70
2023-05-01T05:03:12.936Z,82.14
2023-05-01T05:06:50.507Z,80.48
2023-05-01T05:10:27.901Z,79.48
2023-05-01T05:14:05.732Z,78.36
2023-05-01T05:17:43.054Z,78.04
2023-05-01T05:21:21.145Z,76.96
2023-05-01T05:25:04.540Z,75.98
2023-05-01T05:28:36.231Z,75.82
2023-05-01T05:32:14.163Z,73.94
2023-05-01T05:35:52.669Z,73.26
2023-05-01T05:39:31.064Z,71.84
2023-05-01T05:43:06.622Z,71.25
2023-05-01T05:46:45.269Z,69.97
2023-05-01T05:50:24.107Z,69.36
2023-05-01T05:54:00.060Z,68.22
2023-05-01T05:57:38.163Z,67.47
2023-05-01T06:01:15.206Z,66.07
2023-05-01T06:04:53.402Z,65.89
2023-05-01T06:12:08.302Z,65.47
2023-05-01T06:19:23.718Z,62.30
2023-05-01T06:23:01.545Z,61.62
2023-05-01T06:33:54.418Z,59.15
2023-05-01T06:37:36.636Z,57.50
2023-05-01T06:41:13.497Z,56.59
2023-05-01T06:48:28.870Z,55.28
2023-05-01T06:52:07.012Z,55.27
2023-05-01T06:55:44.678Z,53.77
2023-05-01T06:59:21.838Z,54.06
2023-05-01T07:02:59.647Z,54.16
2023-05-01T07:06:37.643Z,52.31
2023-05-01T07:10:15.742Z,51.30
2023-05-01T07:13:54.802Z,52.90
2023-05-01T07:17:31.388Z,51.97
2023-05-01T07:21:10.240Z,52.37
2023-05-01T07:24:45.853Z,51.05
2023-05-01T07:28:23.463Z,51.29
2023-05-01T07:32:01.700Z,50.86
2023-05-01T07:35:38.667Z,49.92
2023-05-01T07:39:17.901Z,48.31
2023-05-01T07:42:54.667Z,48.67
2023-05-01T07:46:31.873Z,49.58
2023-05-01T07:50:13.574Z,49.67
2023-05-01T07:53:48.048Z,48.05
2023-05-01T07:57:25.547Z,48.59
2023-05-01T08:01:03.103Z,47.90
2023-05-01T08:04:41.930Z,48.47
2023-05-01T08:08:37.090Z,47.63
2023-05-01T08:11:55.429Z,48.13
2023-05-01T08:15:33.612Z,46.86
2023-05-01T08:22:48.670Z,46.18
2023-05-01T08:26:26.804Z,45.16
2023-05-01T08:30:04.462Z,44.90
2023-05-01T08:33:43.475Z,44.55
2023-05-01T08:37:19.976Z,44.67
2023-05-01T08:40:59.104Z,43.23
2023-05-01T08:44:40.055Z,42.91
2023-05-01T08:48:13.411Z,42.77
2023-05-01T08:51:53.531Z,43.86
2023-05-01T08:55:30.704Z,42.20
2023-05-01T08:59:06.099Z,43.68
2023-05-01T09:02:44.599Z,44.12
2023-05-01T09:06:22.804Z,45.55
2023-05-01T09:09:58.744Z,47.24
2023-05-01T09:13:36.409Z,48.34
2023-05-01T09:17:14.414Z,48.64
2023-05-01T09:20:51.630Z,49.00
2023-05-01T09:24:30.270Z,48.57
2023-05-01T09:28:07.947Z,48.21
2023-05-01T09:31:44.884Z,47.61
2023-05-01T09:35:22.466Z,47.38
2023-05-01T09:39:01.580Z,46.96
2023-05-01T09:42:49.656Z,46.96
2023-05-01T09:46:15.614Z,48.22
2023-05-01T09:49:57.235Z,49.38
2023-05-01T09:57:08.138Z,49.13
2023-05-01T10:00:52.237Z,49.55
2023-05-01T10:04:35.455Z,49.71
2023-05-01T10:08:05.870Z,49.16
2023-05-01T10:11:54.618Z,49.39
2023-05-01T10:15:25.661Z,49.26
2023-05-01T10:18:56.850Z,49.77
2023-05-01T10:22:32.168Z,49.95
2023-05-01T10:26:15.014Z,49.13
2023-05-01T10:30:09.458Z,48.84
2023-05-01T10:33:25.388Z,49.07
2023-05-01T10:37:08.160Z,48.08
2023-05-01T10:40:40.810Z,48.51
2023-05-01T10:44:23.273Z,48.52
2023-05-01T10:47:55.603Z,48.06
2023-05-01T10:51:33.605Z,48.05
2023-05-01T10:55:34.267Z,47.88
2023-05-01T10:59:06.468Z,47.61
2023-05-01T11:02:26.901Z,48.01
2023-05-01T11:06:04.297Z,48.18
2023-05-01T11:09:51.421Z,47.32
2023-05-01T11:13:57.953Z,47.74
2023-05-01T11:16:59.360Z,47.73
2023-05-01T11:20:36.977Z,47.75
2023-05-01T11:24:14.847Z,47.86
2023-05-01T11:27:54.372Z,47.41
2023-05-01T11:31:30.080Z,47.54
2023-05-01T11:35:16.809Z,47.31
2023-05-01T11:38:52.722Z,47.23
2023-05-01T11:42:22.997Z,46.81
2023-05-01T11:46:04.228Z,46.69
2023-05-01T11:49:39.067Z,47.11
2023-05-01T11:53:16.621Z,47.19
2023-05-01T11:57:03.874Z,47.27
2023-05-01T12:00:34.885Z,47.98
2023-05-01T12:04:09.174Z,47.97
2023-05-01T12:07:46.568Z,47.35
2023-05-01T12:11:24.213Z,46.73
2023-05-01T12:15:02.779Z,47.45
2023-05-01T12:18:39.798Z,47.77
2023-05-01T12:22:17.512Z,47.31
2023-05-01T12:29:44.862Z,47.92
2023-05-01T12:33:15.864Z,47.08
2023-05-01T12:36:55.180Z,46.42
2023-05-01T12:40:27.525Z,45.71
2023-05-01T12:44:23.925Z,45.92
2023-05-01T12:47:41.282Z,45.64
2023-05-01T12:55:07.506Z,46.36
2023-05-01T12:58:38.206Z,46.66
2023-05-01T13:02:18.529Z,48.85
2023-05-01T13:06:01.932Z,49.96
2023-05-01T13:09:32.817Z,50.64
2023-05-01T13:13:05.122Z,51.11
2023-05-01T13:16:49.801Z,53.00
2023-05-01T13:20:29.364Z,54.22
2023-05-01T13:24:00.375Z,54.58
2023-05-01T13:27:54.276Z,54.96
2023-05-01T13:31:15.150Z,55.75
2023-05-01T13:34:51.653Z,56.86
2023-05-01T13:38:33.136Z,57.78
2023-05-01T13:42:06.665Z,58.24
2023-05-01T13:45:44.162Z,58.07
2023-05-01T13:49:23.066Z,57.97
2023-05-01T13:53:00.644Z,58.43
2023-05-01T13:56:38.904Z,58.12
2023-05-01T14:00:18.049Z,57.31
2023-05-01T14:03:57.362Z,56.90
2023-05-01T14:07:30.258Z,57.22
2023-05-01T14:11:09.897Z,57.15
2023-05-01T14:14:49.669Z,57.52
2023-05-01T14:18:23.051Z,57.69
2023-05-01T14:22:02.912Z,57.75
2023-05-01T14:25:38.808Z,57.44
2023-05-01T14:29:26.235Z,56.36
2023-05-01T14:32:54.637Z,56.35
2023-05-01T14:36:32.802Z,55.87
2023-05-01T14:40:12.987Z,53.98
2023-05-01T14:43:47.907Z,52.99
2023-05-01T14:47:24.529Z,53.63
2023-05-01T14:51:04.936Z,53.58
2023-05-01T14:54:47.004Z,54.43
2023-05-01T14:58:17.855Z,54.94
2023-05-01T15:01:55.350Z,55.79
2023-05-01T15:05:33.789Z,56.99
2023-05-01T15:09:10.934Z,58.25
2023-05-01T15:12:48.356Z,58.63
2023-05-01T15:16:25.857Z,58.92
2023-05-01T15:20:03.964Z,59.05
2023-05-01T15:23:45.396Z,59.31
2023-05-01T15:27:19.289Z,59.65
2023-05-01T15:30:56.524Z,60.49
2023-05-01T15:34:34.489Z,60.39
2023-05-01T15:38:12.990Z,60.43
2023-05-01T15:41:49.756Z,60.72
2023-05-01T15:45:28.063Z,60.81
2023-05-01T15:49:09.158Z,61.06
2023-05-01T15:52:42.676Z,61.66
2023-05-01T15:56:20.483Z,61.85
2023-05-01T15:59:59.980Z,60.02
2023-05-01T16:03:38.234Z,56.94
2023-05-01T16:07:14.530Z,55.23
2023-05-01T16:10:51.786Z,54.91
2023-05-01T16:14:29.168Z,55.07
2023-05-01T16:18:07.492Z,55.10
2023-05-01T16:21:44.446Z,55.81
2023-05-01T16:25:22.165Z,54.07
2023-05-01T16:29:01.885Z,54.88
2023-05-01T16:32:39.756Z,55.40
2023-05-01T16:36:17.354Z,56.25
2023-05-01T16:39:52.914Z,56.50
2023-05-01T16:43:30.533Z,57.20
2023-05-01T16:47:12.725Z,57.50
2023-05-01T16:50:45.795Z,57.95
2023-05-01T16:54:32.369Z,57.46
2023-05-01T16:58:00.814Z,57.57
2023-05-01T17:01:38.725Z,58.92
2023-05-01T17:05:19.066Z,59.05
2023-05-01T17:08:55.009Z,58.76
2023-05-01T17:12:32.160Z,58.74
2023-05-01T17:16:09.076Z,59.08
2023-05-01T17:19:46.715Z,59.05
2023-05-01T17:23:28.181Z,59.73
2023-05-01T17:27:03.349Z,60.47
2023-05-01T17:30:40.085Z,60.10
2023-05-01T17:34:17.376Z,60.98
2023-05-01T17:37:55.545Z,61.14
2023-05-01T17:41:32.678Z,61.02
2023-05-01T17:45:11.629Z,61.92
2023-05-01T17:48:48.922Z,62.77
2023-05-01T17:52:25.989Z,62.76
2023-05-01T17:56:03.975Z,63.15
2023-05-01T17:59:41.389Z,63.94
2023-05-01T18:03:19.029Z,64.23
2023-05-01T18:06:56.995Z,63.75
2023-05-01T18:10:34.295Z,63.57
2023-05-01T18:14:11.924Z,64.00
2023-05-01T18:17:49.605Z,64.49
2023-05-01T18:21:27.816Z,64.82
2023-05-01T18:25:06.545Z,65.31
2023-05-01T18:28:42.917Z,65.83
2023-05-01T18:32:20.070Z,66.26
2023-05-01T18:35:58.475Z,67.24
2023-05-01T18:39:35.711Z,67.44
2023-05-01T18:43:14.437Z,67.90
2023-05-01T18:47:09.826Z,67.89
2023-05-01T18:50:29.054Z,68.08
2023-05-01T18:54:08.020Z,67.96
2023-05-01T18:57:44.353Z,67.58
2023-05-01T19:01:23.728Z,67.99
2023-05-01T19:04:59.870Z,68.44
2023-05-01T19:08:37.634Z,68.43
2023-05-01T19:12:16.697Z,69.15
2023-05-01T19:15:53.738Z,69.07
2023-05-01T19:19:30.548Z,69.10
2023-05-01T19:23:08.399Z,69.17
2023-05-01T19:26:45.677Z,69.26
2023-05-01T19:30:23.220Z,69.22
2023-05-01T19:34:01.559Z,69.27
2023-05-01T19:37:40.172Z,69.29
2023-05-01T19:41:16.544Z,69.46
2023-05-01T19:44:54.129Z,69.94
2023-05-01T19:48:32.075Z,70.05
2023-05-01T19:52:10.395Z,70.45
2023-05-01T19:55:48.215Z,70.81
2023-05-01T19:59:24.824Z,71.04
2023-05-01T20:03:02.685Z,71.90
2023-05-01T20:06:40.368Z,72.24
2023-05-01T20:10:17.768Z,72.86
2023-05-01T20:13:55.407Z,73.09
2023-05-01T20:17:34.425Z,73.51
2023-05-01T20:21:11.320Z,74.17
2023-05-01T20:24:48.107Z,74.66
2023-05-01T20:28:25.966Z,74.88
2023-05-01T20:32:06.202Z,74.77
2023-05-01T20:35:41.770Z,74.95
2023-05-01T20:39:19.266Z,74.95
2023-05-01T20:42:59.558Z,74.78
2023-05-01T20:46:34.668Z,75.32
2023-05-01T20:50:12.258Z,75.01
2023-05-01T20:53:49.625Z,75.12
2023-05-01T20:57:28.033Z,75.05
2023-05-01T21:01:05.468Z,75.52
2023-05-01T21:04:43.443Z,75.64
2023-05-01T21:08:20.397Z,75.70
2023-05-01T21:11:57.969Z,75.84
2023-05-01T21:15:35.776Z,75.46
2023-05-01T21:19:15.455Z,75.25
2023-05-01T21:22:50.867Z,75.08
2023-05-01T21:26:29.769Z,75.11
2023-05-01T21:30:07.212Z,75.06
2023-05-01T21:33:45.865Z,75.12
2023-05-01T21:37:21.462Z,75.12
2023-05-01T21:40:59.700Z,74.51
2023-05-01T21:44:36.851Z,73.89
2023-05-01T21:48:16.569Z,73.02
2023-05-01T21:51:52.918Z,72.20
2023-05-01T21:55:31.478Z,71.14
2023-05-01T22:02:48.683Z,71.04
2023-05-01T22:06:26.180Z,70.32
2023-05-01T22:10:01.865Z,70.00
2023-05-01T22:13:38.417Z,70.20
2023-05-01T22:17:17.786Z,70.97
2023-05-01T22:20:54.182Z,72.00
2023-05-01T22:24:31.766Z,72.86
2023-05-01T22:28:09.611Z,72.91
2023-05-01T22:31:47.708Z,73.10
2023-05-01T22:35:24.575Z,73.17
2023-05-01T22:42:40.257Z,73.50
2023-05-01T22:46:17.819Z,73.59
2023-05-01T22:49:55.135Z,73.69
2023-05-01T22:53:33.649Z,74.03
2023-05-01T22:57:10.679Z,74.07
2023-05-01T23:00:48.355Z,73.99
2023-05-01T23:08:03.763Z,73.85
2023-05-01T23:11:41.780Z,73.96
2023-05-01T23:15:24.646Z,74.07
2023-05-01T23:18:56.858Z,73.83
2023-05-01T23:22:38.245Z,73.97
2023-05-01T23:26:26.087Z,74.24
2023-05-01T23:29:55.061Z,74.28
2023-05-01T23:33:39.948Z,74.35
2023-05-01T23:37:05.206Z,74.47
2023-05-01T23:40:43.782Z,74.77
2023-05-01T23:44:20.604Z,74.70
2023-05-01T23:47:58.960Z,74.67
2023-05-01T23:51:35.965Z,75.18
2023-05-01T23:55:13.702Z,75.46
